createdAt,value
2023-06-30T00:00:26.803Z,99531.00
2023-06-30T00:01:29.866Z,99540.66
2023-06-30T00:02:31.829Z,99534.59
2023-06-30T00:03:33.907Z,99536.19
2023-06-30T00:04:36.753Z,99534.44
2023-06-30T00:05:38.716Z,99535.13
2023-06-30T00:06:40.865Z,99541.97
2023-06-30T00:07:44.022Z,99537.72
2023-06-30T00:08:46.320Z,99528.91
2023-06-30T00:09:49.646Z,99528.72
2023-06-30T00:10:51.512Z,99533.25
2023-06-30T00:11:55.724Z,99535.94
2023-06-30T00:12:57.689Z,99539.38
2023-06-30T00:13:59.509Z,99540.94
2023-06-30T00:15:01.633Z,99538.78
2023-06-30T00:16:03.658Z,99538.72
2023-06-30T00:17:05.918Z,99533.94
2023-06-30T00:18:07.916Z,99539.94
2023-06-30T00:19:10.413Z,99539.75
2023-06-30T00:20:13.071Z,99540.88
2023-06-30T00:21:15.155Z,99539.84
2023-06-30T00:22:17.992Z,99536.44
2023-06-30T00:23:21.234Z,99536.37
2023-06-30T00:24:23.185Z,99530.56
2023-06-30T00:25:25.058Z,99526.81
2023-06-30T00:26:26.917Z,99534.78
2023-06-30T00:27:29.093Z,99534.84
2023-06-30T00:28:31.321Z,99527.94
2023-06-30T00:29:33.229Z,99532.47
2023-06-30T00:30:35.092Z,99529.22
2023-06-30T00:31:37.232Z,99525.84
2023-06-30T00:32:39.396Z,99526.56
2023-06-30T00:33:41.334Z,99519.00
2023-06-30T00:34:43.188Z,99521.22
2023-06-30T00:35:45.361Z,99526.00
2023-06-30T00:36:47.381Z,99526.22
2023-06-30T00:37:49.507Z,99520.09
2023-06-30T00:38:52.799Z,99526.91
2023-06-30T00:39:54.716Z,99521.00
2023-06-30T00:40:56.665Z,99515.81
2023-06-30T00:41:58.630Z,99519.19
2023-06-30T00:43:02.014Z,99518.69
2023-06-30T00:44:04.118Z,99517.31
2023-06-30T00:45:06.625Z,99518.72
2023-06-30T00:46:13.301Z,99518.38
2023-06-30T00:47:15.275Z,99512.69
2023-06-30T00:48:18.577Z,99520.13
2023-06-30T00:49:20.576Z,99520.84
2023-06-30T00:50:22.599Z,99517.81
2023-06-30T00:51:24.485Z,99515.72
2023-06-30T00:52:26.635Z,99509.09
2023-06-30T00:53:28.862Z,99513.84
2023-06-30T00:54:32.439Z,99516.19
2023-06-30T00:55:36.016Z,99517.00
2023-06-30T00:56:37.949Z,99510.19
2023-06-30T00:57:39.846Z,99518.63
2023-06-30T00:58:43.326Z,99514.91
2023-06-30T00:59:45.256Z,99513.91
2023-06-30T01:00:47.195Z,99513.72
2023-06-30T01:01:54.592Z,99519.78
2023-06-30T01:03:12.668Z,99508.63
2023-06-30T01:04:37.250Z,99517.81
2023-06-30T01:05:56.163Z,99516.53
2023-06-30T01:07:18.519Z,99512.06
2023-06-30T01:08:29.470Z,99515.94
2023-06-30T01:09:38.378Z,99510.03
2023-06-30T01:10:44.976Z,99516.16
2023-06-30T01:11:49.802Z,99511.13
2023-06-30T01:12:52.488Z,99512.69
2023-06-30T01:13:57.006Z,99510.09
2023-06-30T01:15:00.783Z,99510.09
2023-06-30T01:16:05.355Z,99508.50
2023-06-30T01:17:08.496Z,99505.13
2023-06-30T01:18:12.844Z,99505.66
2023-06-30T01:19:27.299Z,99505.34
2023-06-30T01:20:33.866Z,99509.00
2023-06-30T01:21:36.848Z,99505.06
2023-06-30T01:22:45.825Z,99500.72
2023-06-30T01:23:52.811Z,99510.97
2023-06-30T01:25:00.077Z,99511.19
2023-06-30T01:26:03.977Z,99509.00
2023-06-30T01:27:06.515Z,99503.44
2023-06-30T01:28:09.445Z,99507.28
2023-06-30T01:29:11.853Z,99505.25
2023-06-30T01:30:15.213Z,99497.19
2023-06-30T01:31:18.464Z,99506.09
2023-06-30T01:32:20.898Z,99503.50
2023-06-30T01:33:23.381Z,99499.16
2023-06-30T01:34:25.828Z,99492.63
2023-06-30T01:35:29.129Z,99495.94
2023-06-30T01:36:31.355Z,99502.31
2023-06-30T01:37:34.438Z,99495.56
2023-06-30T01:38:36.556Z,99494.97
2023-06-30T01:39:38.458Z,99487.25
2023-06-30T01:40:43.017Z,99492.97
2023-06-30T01:41:46.009Z,99486.34
2023-06-30T01:42:52.563Z,99487.66
2023-06-30T01:43:56.743Z,99490.87
2023-06-30T01:44:59.659Z,99494.00
2023-06-30T01:46:01.700Z,99493.75
2023-06-30T01:47:04.813Z,99497.19
2023-06-30T01:48:07.321Z,99490.91
2023-06-30T01:49:11.322Z,99489.84
2023-06-30T01:50:15.758Z,99494.06
2023-06-30T01:51:19.190Z,99492.53
2023-06-30T01:52:21.453Z,99492.09
2023-06-30T01:53:23.484Z,99497.25
2023-06-30T01:54:25.352Z,99493.03
2023-06-30T01:55:27.872Z,99495.19
2023-06-30T01:56:29.801Z,99496.81
2023-06-30T01:57:32.312Z,99497.91
2023-06-30T01:58:34.185Z,99491.88
2023-06-30T01:59:36.165Z,99490.63
2023-06-30T02:00:38.058Z,99493.47
2023-06-30T02:01:40.222Z,99482.94
2023-06-30T02:02:42.863Z,99489.25
2023-06-30T02:03:45.967Z,99487.69
2023-06-30T02:04:48.020Z,99492.00
2023-06-30T02:05:51.432Z,99494.22
2023-06-30T02:06:53.636Z,99490.44
2023-06-30T02:07:55.528Z,99488.56
2023-06-30T02:08:57.668Z,99495.19
2023-06-30T02:09:59.620Z,99489.84
2023-06-30T02:11:01.642Z,99490.87
2023-06-30T02:12:04.370Z,99490.72
2023-06-30T02:13:06.627Z,99496.91
2023-06-30T02:14:08.557Z,99491.56
2023-06-30T02:15:10.792Z,99495.75
2023-06-30T02:16:13.713Z,99495.75
2023-06-30T02:17:15.667Z,99489.47
2023-06-30T02:18:20.180Z,99494.16
2023-06-30T02:19:24.965Z,99496.03
2023-06-30T02:20:26.807Z,99490.28
2023-06-30T02:21:28.735Z,99494.75
2023-06-30T02:22:30.706Z,99490.03
2023-06-30T02:23:33.160Z,99495.75
2023-06-30T02:24:35.091Z,99498.94
2023-06-30T02:25:37.057Z,99498.22
2023-06-30T02:26:38.953Z,99491.47
2023-06-30T02:27:40.967Z,99505.13
2023-06-30T02:28:43.160Z,99491.37
2023-06-30T02:29:45.067Z,99490.06
2023-06-30T02:30:46.951Z,99490.59
2023-06-30T02:31:48.979Z,99486.59
2023-06-30T02:32:51.123Z,99494.00
2023-06-30T02:33:54.459Z,99492.38
2023-06-30T02:34:56.420Z,99481.53
2023-06-30T02:35:58.300Z,99490.44
2023-06-30T02:37:02.044Z,99496.13
2023-06-30T02:38:05.050Z,99497.22
2023-06-30T02:39:07.227Z,99495.69
2023-06-30T02:40:10.296Z,99490.44
2023-06-30T02:41:12.318Z,99495.66
2023-06-30T02:42:14.310Z,99486.84
2023-06-30T02:43:16.225Z,99490.13
2023-06-30T02:44:18.415Z,99493.84
2023-06-30T02:45:20.818Z,99487.38
2023-06-30T02:46:22.762Z,99490.22
2023-06-30T02:47:24.697Z,99484.59
2023-06-30T02:48:26.571Z,99483.81
2023-06-30T02:49:29.319Z,99489.19
2023-06-30T02:50:32.908Z,99490.53
2023-06-30T02:51:34.839Z,99488.72
2023-06-30T02:52:36.877Z,99487.81
2023-06-30T02:53:39.436Z,99493.03
2023-06-30T02:54:41.775Z,99484.13
2023-06-30T02:55:44.111Z,99479.91
2023-06-30T02:56:46.693Z,99484.91
2023-06-30T02:57:48.603Z,99486.47
2023-06-30T02:58:51.544Z,99486.69
2023-06-30T02:59:53.817Z,99479.62
2023-06-30T03:00:57.721Z,99488.00
2023-06-30T03:02:01.076Z,99484.16
2023-06-30T03:03:05.720Z,99487.94
2023-06-30T03:04:08.511Z,99474.69
2023-06-30T03:05:11.958Z,99485.50
2023-06-30T03:06:14.445Z,99482.03
2023-06-30T03:07:17.773Z,99475.19
2023-06-30T03:08:20.607Z,99479.34
2023-06-30T03:09:23.098Z,99479.41
2023-06-30T03:10:26.219Z,99474.97
2023-06-30T03:11:28.377Z,99490.28
2023-06-30T03:12:30.270Z,99480.25
2023-06-30T03:13:32.872Z,99484.03
2023-06-30T03:14:35.184Z,99480.56
2023-06-30T03:15:37.382Z,99479.44
2023-06-30T03:16:39.434Z,99487.12
2023-06-30T03:17:42.085Z,99483.72
2023-06-30T03:18:44.447Z,99481.59
2023-06-30T03:19:46.384Z,99478.44
2023-06-30T03:20:49.212Z,99480.88
2023-06-30T03:21:51.648Z,99474.81
2023-06-30T03:22:54.767Z,99480.94
2023-06-30T03:23:57.702Z,99475.84
2023-06-30T03:25:01.464Z,99478.34
2023-06-30T03:26:03.835Z,99482.34
2023-06-30T03:27:06.473Z,99478.06
2023-06-30T03:28:08.537Z,99479.41
2023-06-30T03:29:10.436Z,99481.13
2023-06-30T03:30:12.695Z,99482.41
2023-06-30T03:31:15.749Z,99479.62
2023-06-30T03:32:17.658Z,99476.28
2023-06-30T03:33:19.651Z,99476.56
2023-06-30T03:34:21.924Z,99477.66
2023-06-30T03:35:24.721Z,99476.63
2023-06-30T03:36:27.196Z,99475.84
2023-06-30T03:37:29.099Z,99476.28
2023-06-30T03:38:32.010Z,99476.44
2023-06-30T03:39:33.930Z,99476.94
2023-06-30T03:40:35.935Z,99474.81
2023-06-30T03:41:38.242Z,99478.59
2023-06-30T03:42:41.451Z,99477.53
2023-06-30T03:43:43.325Z,99472.28
2023-06-30T03:44:45.206Z,99473.03
2023-06-30T03:45:47.737Z,99473.38
2023-06-30T03:46:50.134Z,99475.56
2023-06-30T03:47:52.858Z,99476.84
2023-06-30T03:48:55.048Z,99470.25
2023-06-30T03:49:56.920Z,99472.66
2023-06-30T03:50:58.955Z,99468.91
2023-06-30T03:52:01.171Z,99466.78
2023-06-30T03:53:03.086Z,99470.28
2023-06-30T03:54:05.826Z,99470.81
2023-06-30T03:55:09.480Z,99466.87
2023-06-30T03:56:11.693Z,99471.62
2023-06-30T03:57:13.954Z,99470.84
2023-06-30T03:58:15.839Z,99473.78
2023-06-30T03:59:18.259Z,99472.78
2023-06-30T04:00:21.467Z,99470.75
2023-06-30T04:01:23.658Z,99471.59
2023-06-30T04:02:25.623Z,99474.53
2023-06-30T04:03:28.250Z,99471.44
2023-06-30T04:04:30.508Z,99476.66
2023-06-30T04:05:32.558Z,99470.34
2023-06-30T04:06:34.896Z,99473.78
2023-06-30T04:07:36.866Z,99467.44
2023-06-30T04:08:38.962Z,99476.66
2023-06-30T04:09:40.768Z,99474.63
2023-06-30T04:10:42.832Z,99470.34
2023-06-30T04:11:44.961Z,99468.78
2023-06-30T04:12:46.837Z,99475.41
2023-06-30T04:13:48.729Z,99476.47
2023-06-30T04:14:50.667Z,99472.00
2023-06-30T04:15:52.631Z,99471.22
2023-06-30T04:16:56.786Z,99470.72
2023-06-30T04:17:58.973Z,99471.53
2023-06-30T04:19:00.922Z,99474.16
2023-06-30T04:20:04.843Z,99468.41
2023-06-30T04:21:06.743Z,99473.16
2023-06-30T04:22:08.876Z,99468.13
2023-06-30T04:23:10.765Z,99475.81
2023-06-30T04:24:12.647Z,99467.34
2023-06-30T04:25:14.796Z,99464.72
2023-06-30T04:26:18.216Z,99472.12
2023-06-30T04:27:20.422Z,99469.47
2023-06-30T04:28:22.258Z,99470.00
2023-06-30T04:29:24.525Z,99471.34
2023-06-30T04:30:26.504Z,99477.16
2023-06-30T04:31:28.462Z,99479.56
2023-06-30T04:32:30.686Z,99476.38
2023-06-30T04:33:35.154Z,99482.72
2023-06-30T04:34:36.996Z,99479.84
2023-06-30T04:35:39.140Z,99483.00
2023-06-30T04:36:41.084Z,99481.94
2023-06-30T04:37:43.280Z,99481.69
2023-06-30T04:38:48.212Z,99481.44
2023-06-30T04:39:51.416Z,99482.75
2023-06-30T04:40:53.352Z,99479.81
2023-06-30T04:41:55.199Z,99482.97
2023-06-30T04:42:58.103Z,99483.25
2023-06-30T04:44:00.730Z,99483.75
2023-06-30T04:45:02.614Z,99483.22
2023-06-30T04:46:04.546Z,99486.91
2023-06-30T04:47:07.558Z,99486.88
2023-06-30T04:48:09.890Z,99474.69
2023-06-30T04:49:11.850Z,99471.78
2023-06-30T04:50:13.713Z,99480.50
2023-06-30T04:51:16.481Z,99481.56
2023-06-30T04:52:18.367Z,99482.56
2023-06-30T04:53:20.690Z,99488.97
2023-06-30T04:54:23.465Z,99485.22
2023-06-30T04:55:25.368Z,99479.38
2023-06-30T04:56:27.286Z,99477.72
2023-06-30T04:57:29.206Z,99479.03
2023-06-30T04:58:31.471Z,99476.09
2023-06-30T04:59:33.403Z,99479.31
2023-06-30T05:00:35.479Z,99479.31
2023-06-30T05:01:37.405Z,99479.75
2023-06-30T05:02:39.377Z,99480.84
2023-06-30T05:03:41.580Z,99474.97
2023-06-30T05:04:43.453Z,99471.72
2023-06-30T05:05:45.661Z,99468.84
2023-06-30T05:06:47.789Z,99470.69
2023-06-30T05:07:49.626Z,99470.19
2023-06-30T05:08:51.881Z,99467.81
2023-06-30T05:09:53.700Z,99466.41
2023-06-30T05:10:55.602Z,99466.34
2023-06-30T05:11:57.501Z,99470.28
2023-06-30T05:12:59.472Z,99473.06
2023-06-30T05:14:02.101Z,99466.72
2023-06-30T05:15:04.270Z,99467.91
2023-06-30T05:16:06.231Z,99467.06
2023-06-30T05:17:08.570Z,99472.03
2023-06-30T05:18:10.505Z,99460.75
2023-06-30T05:19:12.722Z,99463.91
2023-06-30T05:20:14.602Z,99458.06
2023-06-30T05:21:16.561Z,99456.81
2023-06-30T05:22:18.431Z,99458.22
2023-06-30T05:23:20.494Z,99464.78
2023-06-30T05:24:22.665Z,99458.03
2023-06-30T05:25:24.603Z,99465.69
2023-06-30T05:26:26.520Z,99456.84
2023-06-30T05:27:28.428Z,99461.63
2023-06-30T05:28:30.380Z,99457.41
2023-06-30T05:29:33.073Z,99458.88
2023-06-30T05:30:35.031Z,99453.13
2023-06-30T05:31:37.026Z,99454.59
2023-06-30T05:32:38.897Z,99458.97
2023-06-30T05:33:40.832Z,99459.59
2023-06-30T05:34:43.948Z,99465.47
2023-06-30T05:35:46.059Z,99457.53
2023-06-30T05:36:48.095Z,99462.00
2023-06-30T05:37:49.997Z,99467.09
2023-06-30T05:38:51.914Z,99463.91
2023-06-30T05:39:54.336Z,99460.47
2023-06-30T05:40:57.145Z,99458.47
2023-06-30T05:41:59.041Z,99463.66
2023-06-30T05:43:00.903Z,99460.03
2023-06-30T05:44:02.850Z,99458.25
2023-06-30T05:45:05.471Z,99463.06
2023-06-30T05:46:07.321Z,99464.75
2023-06-30T05:47:09.234Z,99462.94
2023-06-30T05:48:11.039Z,99459.97
2023-06-30T05:49:13.522Z,99470.94
2023-06-30T05:50:15.784Z,99466.72
2023-06-30T05:51:17.731Z,99459.25
2023-06-30T05:52:22.686Z,99460.28
2023-06-30T05:53:24.561Z,99464.34
2023-06-30T05:54:26.429Z,99462.97
2023-06-30T05:55:28.714Z,99463.06
2023-06-30T05:56:30.896Z,99465.06
2023-06-30T05:57:34.385Z,99460.06
2023-06-30T05:58:39.149Z,99465.31
2023-06-30T05:59:40.976Z,99463.75
2023-06-30T06:00:43.278Z,99461.28
2023-06-30T06:01:45.463Z,99466.41
2023-06-30T06:02:47.505Z,99473.09
2023-06-30T06:03:50.136Z,99467.66
2023-06-30T06:04:52.874Z,99474.03
2023-06-30T06:05:55.126Z,99469.59
2023-06-30T06:06:57.462Z,99467.25
2023-06-30T06:07:59.386Z,99476.25
2023-06-30T06:09:01.236Z,99464.66
2023-06-30T06:10:03.153Z,99475.13
2023-06-30T06:11:05.038Z,99476.56
2023-06-30T06:12:07.458Z,99474.59
2023-06-30T06:13:09.601Z,99470.34
2023-06-30T06:14:11.661Z,99477.34
2023-06-30T06:15:13.771Z,99473.03
2023-06-30T06:16:16.010Z,99476.47
2023-06-30T06:17:18.420Z,99473.41
2023-06-30T06:18:20.311Z,99480.19
2023-06-30T06:19:22.285Z,99475.94
2023-06-30T06:20:24.175Z,99481.47
2023-06-30T06:21:29.180Z,99481.00
2023-06-30T06:22:31.288Z,99480.31
2023-06-30T06:23:33.220Z,99472.84
2023-06-30T06:24:35.121Z,99483.56
2023-06-30T06:25:37.019Z,99476.06
2023-06-30T06:26:39.166Z,99476.84
2023-06-30T06:27:41.313Z,99479.69
2023-06-30T06:28:43.190Z,99469.28
2023-06-30T06:29:45.029Z,99474.97
2023-06-30T06:30:46.998Z,99478.00
2023-06-30T06:31:52.664Z,99479.22
2023-06-30T06:32:54.823Z,99476.44
2023-06-30T06:33:56.776Z,99472.53
2023-06-30T06:34:58.612Z,99468.72
2023-06-30T06:36:00.518Z,99469.28
2023-06-30T06:37:02.626Z,99473.25
2023-06-30T06:38:04.786Z,99475.91
2023-06-30T06:39:06.616Z,99469.66
2023-06-30T06:40:09.012Z,99466.09
2023-06-30T06:41:10.827Z,99472.56
2023-06-30T06:42:12.683Z,99470.38
2023-06-30T06:43:15.356Z,99472.94
2023-06-30T06:44:17.912Z,99464.81
2023-06-30T06:45:19.776Z,99470.13
2023-06-30T06:46:21.649Z,99475.50
2023-06-30T06:48:02.306Z,99466.28
2023-06-30T06:49:04.803Z,99467.94
2023-06-30T06:50:06.867Z,99464.19
2023-06-30T06:51:08.823Z,99466.34
2023-06-30T06:52:10.682Z,99461.59
2023-06-30T06:53:19.131Z,99461.97
2023-06-30T06:54:21.301Z,99457.28
2023-06-30T06:55:23.160Z,99459.94
2023-06-30T06:56:25.012Z,99459.53
2023-06-30T06:57:27.016Z,99455.25
2023-06-30T06:58:31.529Z,99458.88
2023-06-30T06:59:33.662Z,99454.63
2023-06-30T07:00:36.922Z,99454.34
2023-06-30T07:01:38.860Z,99451.53
2023-06-30T07:02:40.789Z,99448.84
2023-06-30T07:03:42.854Z,99457.06
2023-06-30T07:04:44.989Z,99457.97
2023-06-30T07:05:47.282Z,99444.44
2023-06-30T07:06:49.456Z,99454.19
2023-06-30T07:07:51.324Z,99451.69
2023-06-30T07:08:53.327Z,99454.81
2023-06-30T07:09:55.493Z,99452.97
2023-06-30T07:10:57.460Z,99459.22
2023-06-30T07:11:59.488Z,99457.84
2023-06-30T07:13:02.489Z,99458.00
2023-06-30T07:14:04.418Z,99457.22
2023-06-30T07:15:07.108Z,99459.72
2023-06-30T07:16:08.971Z,99460.97
2023-06-30T07:17:10.906Z,99460.16
2023-06-30T07:18:13.216Z,99459.09
2023-06-30T07:19:15.317Z,99465.84
2023-06-30T07:20:17.535Z,99461.72
2023-06-30T07:21:19.823Z,99459.84
2023-06-30T07:22:22.757Z,99457.66
2023-06-30T07:23:26.824Z,99454.34
2023-06-30T07:24:38.251Z,99462.22
2023-06-30T07:25:45.910Z,99455.47
2023-06-30T07:26:48.249Z,99461.78
2023-06-30T07:27:55.232Z,99464.88
2023-06-30T07:28:57.133Z,99456.03
2023-06-30T07:29:59.009Z,99461.69
2023-06-30T07:31:01.559Z,99460.44
2023-06-30T07:32:03.593Z,99452.22
2023-06-30T07:33:05.715Z,99455.75
2023-06-30T07:34:08.268Z,99455.59
2023-06-30T07:35:10.225Z,99456.72
2023-06-30T07:36:12.478Z,99459.50
2023-06-30T07:37:14.302Z,99456.16
2023-06-30T07:38:16.198Z,99458.88
2023-06-30T07:39:19.212Z,99461.03
2023-06-30T07:40:23.826Z,99453.66
2023-06-30T07:41:26.815Z,99449.06
2023-06-30T07:42:28.777Z,99445.37
2023-06-30T07:43:31.583Z,99442.84
2023-06-30T07:44:33.490Z,99445.50
2023-06-30T07:45:35.432Z,99450.69
2023-06-30T07:46:37.714Z,99445.03
2023-06-30T07:47:43.423Z,99440.81
2023-06-30T07:48:45.589Z,99443.22
2023-06-30T07:49:47.615Z,99445.53
2023-06-30T07:50:59.589Z,99445.84
2023-06-30T07:52:09.751Z,99439.06
2023-06-30T07:53:11.688Z,99439.31
2023-06-30T07:54:13.580Z,99437.97
2023-06-30T07:55:19.689Z,99436.75
2023-06-30T07:56:21.674Z,99439.59
2023-06-30T07:57:27.294Z,99440.06
2023-06-30T07:58:29.161Z,99438.78
2023-06-30T07:59:31.054Z,99433.09
2023-06-30T08:00:33.122Z,99439.50
2023-06-30T08:01:35.586Z,99445.22
2023-06-30T08:02:38.366Z,99437.09
2023-06-30T08:03:40.583Z,99441.34
2023-06-30T08:04:42.987Z,99441.62
2023-06-30T08:05:45.332Z,99442.59
2023-06-30T08:06:48.591Z,99442.69
2023-06-30T08:07:51.690Z,99439.25
2023-06-30T08:08:53.853Z,99443.53
2023-06-30T08:09:55.729Z,99437.22
2023-06-30T08:10:57.606Z,99438.06
2023-06-30T08:11:59.904Z,99439.13
2023-06-30T08:13:01.762Z,99441.44
2023-06-30T08:14:05.338Z,99446.06
2023-06-30T08:15:07.819Z,99438.63
2023-06-30T08:16:09.870Z,99433.88
2023-06-30T08:17:12.156Z,99431.97
2023-06-30T08:18:31.842Z,99434.66
2023-06-30T08:19:47.655Z,99426.38
2023-06-30T08:20:51.245Z,99422.91
2023-06-30T08:21:53.283Z,99426.91
2023-06-30T08:22:55.853Z,99430.97
2023-06-30T08:23:58.013Z,99421.94
2023-06-30T08:24:59.861Z,99425.47
2023-06-30T08:26:01.827Z,99416.38
2023-06-30T08:27:03.879Z,99413.75
2023-06-30T08:28:06.232Z,99418.88
2023-06-30T08:29:08.074Z,99425.78
2023-06-30T08:30:10.084Z,99414.37
2023-06-30T08:31:12.001Z,99415.06
2023-06-30T08:32:13.921Z,99421.22
2023-06-30T08:33:30.728Z,99423.56
2023-06-30T08:34:38.298Z,99416.91
2023-06-30T08:35:40.272Z,99418.78
2023-06-30T08:36:42.098Z,99426.66
2023-06-30T08:37:44.167Z,99425.56
2023-06-30T08:38:46.345Z,99423.22
2023-06-30T08:39:48.166Z,99417.09
2023-06-30T08:40:50.001Z,99418.44
2023-06-30T08:41:55.273Z,99413.56
2023-06-30T08:42:59.885Z,99413.59
2023-06-30T08:44:02.238Z,99415.75
2023-06-30T08:45:05.287Z,99420.06
2023-06-30T08:46:10.042Z,99420.59
2023-06-30T08:47:14.673Z,99420.47
2023-06-30T08:48:20.676Z,99420.25
2023-06-30T08:49:26.010Z,99417.34
2023-06-30T08:50:28.090Z,99417.38
2023-06-30T08:51:30.787Z,99412.22
2023-06-30T08:52:32.720Z,99423.53
2023-06-30T08:53:34.807Z,99414.03
2023-06-30T08:54:36.976Z,99414.91
2023-06-30T08:55:38.884Z,99411.53
2023-06-30T08:56:43.575Z,99412.78
2023-06-30T08:57:46.399Z,99415.13
2023-06-30T08:58:48.260Z,99406.63
2023-06-30T08:59:50.833Z,99416.91
2023-06-30T09:00:53.280Z,99417.28
2023-06-30T09:01:58.045Z,99415.50
2023-06-30T09:03:00.362Z,99414.13
2023-06-30T09:04:03.289Z,99419.38
2023-06-30T09:05:06.875Z,99413.94
2023-06-30T09:06:12.468Z,99405.87
2023-06-30T09:07:24.529Z,99417.16
2023-06-30T09:08:35.435Z,99414.72
2023-06-30T09:09:43.449Z,99407.44
2023-06-30T09:10:48.205Z,99406.41
2023-06-30T09:11:51.254Z,99407.69
2023-06-30T09:12:58.314Z,99400.59
2023-06-30T09:14:03.054Z,99410.28
2023-06-30T09:15:07.908Z,99412.44
2023-06-30T09:16:19.184Z,99404.16
2023-06-30T09:17:22.211Z,99406.84
2023-06-30T09:18:24.435Z,99398.78
2023-06-30T09:19:26.699Z,99397.66
2023-06-30T09:20:28.877Z,99404.72
2023-06-30T09:21:31.072Z,99405.63
2023-06-30T09:22:52.416Z,99400.47
2023-06-30T09:23:56.209Z,99398.97
2023-06-30T09:24:58.068Z,99401.69
2023-06-30T09:25:59.955Z,99392.72
2023-06-30T09:27:02.182Z,99388.63
2023-06-30T09:28:10.963Z,99394.06
2023-06-30T09:29:13.837Z,99396.66
2023-06-30T09:30:15.738Z,99388.91
2023-06-30T09:31:17.753Z,99393.16
2023-06-30T09:32:27.229Z,99389.59
2023-06-30T09:33:29.700Z,99387.84
2023-06-30T09:34:31.788Z,99389.00
2023-06-30T09:35:40.798Z,99388.41
2023-06-30T09:36:54.250Z,99387.53
2023-06-30T09:37:56.368Z,99388.34
2023-06-30T09:38:58.896Z,99386.13
2023-06-30T09:40:00.794Z,99381.44
2023-06-30T09:41:06.525Z,99379.78
2023-06-30T09:42:17.183Z,99379.53
2023-06-30T09:43:21.461Z,99378.97
2023-06-30T09:44:24.076Z,99376.59
2023-06-30T09:45:25.967Z,99381.97
2023-06-30T09:46:29.251Z,99377.16
2023-06-30T09:47:31.188Z,99377.28
2023-06-30T09:48:37.256Z,99374.75
2023-06-30T09:49:41.114Z,99372.56
2023-06-30T09:50:43.612Z,99368.72
2023-06-30T09:51:47.811Z,99371.00
2023-06-30T09:52:50.238Z,99366.66
2023-06-30T09:53:55.461Z,99363.78
2023-06-30T09:54:57.375Z,99369.72
2023-06-30T09:55:59.309Z,99366.00
2023-06-30T09:57:02.595Z,99363.88
2023-06-30T09:58:04.423Z,99361.94
2023-06-30T09:59:07.101Z,99367.25
2023-06-30T10:00:25.542Z,99368.00
2023-06-30T10:01:35.788Z,99362.38
2023-06-30T10:02:37.846Z,99365.41
2023-06-30T10:03:50.228Z,99363.78
2023-06-30T10:04:52.071Z,99362.25
2023-06-30T10:05:54.317Z,99366.13
2023-06-30T10:06:57.361Z,99372.00
2023-06-30T10:08:01.608Z,99366.88
2023-06-30T10:09:05.607Z,99373.03
2023-06-30T10:10:13.242Z,99366.72
2023-06-30T10:11:15.714Z,99363.59
2023-06-30T10:12:19.679Z,99372.69
2023-06-30T10:13:22.145Z,99374.16
2023-06-30T10:14:32.538Z,99368.44
2023-06-30T10:15:35.894Z,99371.00
2023-06-30T10:16:39.815Z,99366.84
2023-06-30T10:17:45.534Z,99361.72
2023-06-30T10:18:50.332Z,99368.13
2023-06-30T10:19:53.174Z,99373.16
2023-06-30T10:20:55.146Z,99364.00
2023-06-30T10:21:57.610Z,99363.19
2023-06-30T10:23:01.853Z,99362.72
2023-06-30T10:24:04.033Z,99362.72
2023-06-30T10:25:09.360Z,99362.03
2023-06-30T10:26:15.856Z,99367.59
2023-06-30T10:27:19.887Z,99359.81
2023-06-30T10:28:22.322Z,99362.97
2023-06-30T10:29:24.372Z,99358.75
2023-06-30T10:30:27.043Z,99366.91
2023-06-30T10:31:29.219Z,99361.44
2023-06-30T10:32:31.284Z,99360.28
2023-06-30T10:33:33.677Z,99355.38
2023-06-30T10:34:36.979Z,99363.38
2023-06-30T10:35:39.631Z,99368.87
2023-06-30T10:36:41.728Z,99363.34
2023-06-30T10:37:43.805Z,99365.06
2023-06-30T10:38:48.121Z,99359.38
2023-06-30T10:39:50.208Z,99367.25
2023-06-30T10:41:12.326Z,99352.16
2023-06-30T10:42:16.867Z,99360.13
2023-06-30T10:43:18.836Z,99359.00
2023-06-30T10:44:21.734Z,99357.94
2023-06-30T10:45:50.613Z,99360.06
2023-06-30T10:46:54.939Z,99361.16
2023-06-30T10:47:57.464Z,99359.63
2023-06-30T10:48:59.947Z,99352.66
2023-06-30T10:50:12.923Z,99355.59
2023-06-30T10:51:14.851Z,99359.34
2023-06-30T10:52:34.790Z,99356.38
2023-06-30T10:53:36.830Z,99359.28
2023-06-30T10:54:41.775Z,99354.56
2023-06-30T10:55:45.633Z,99353.22
2023-06-30T10:56:48.138Z,99353.87
2023-06-30T10:57:51.974Z,99345.09
2023-06-30T10:58:58.709Z,99351.56
2023-06-30T11:00:07.111Z,99340.44
2023-06-30T11:01:09.262Z,99352.22
2023-06-30T11:02:11.760Z,99348.53
2023-06-30T11:03:13.736Z,99346.09
2023-06-30T11:04:16.088Z,99346.84
2023-06-30T11:05:31.075Z,99348.00
2023-06-30T11:06:37.557Z,99347.28
2023-06-30T11:07:39.567Z,99340.28
2023-06-30T11:09:00.965Z,99342.97
2023-06-30T11:10:06.187Z,99341.34
2023-06-30T11:11:09.133Z,99341.12
2023-06-30T11:12:11.281Z,99339.66
2023-06-30T11:13:13.819Z,99335.12
2023-06-30T11:14:30.394Z,99334.56
2023-06-30T11:15:47.114Z,99335.81
2023-06-30T11:17:04.904Z,99335.81
2023-06-30T11:18:12.443Z,99329.41
2023-06-30T11:19:28.210Z,99328.91
2023-06-30T11:20:31.219Z,99327.16
2023-06-30T11:21:33.446Z,99322.25
2023-06-30T11:22:35.352Z,99324.28
2023-06-30T11:23:39.024Z,99326.81
2023-06-30T11:24:41.012Z,99320.75
2023-06-30T11:25:42.881Z,99316.31
2023-06-30T11:26:44.882Z,99318.22
2023-06-30T11:27:47.179Z,99326.91
2023-06-30T11:28:49.696Z,99318.91
2023-06-30T11:29:54.352Z,99320.03
2023-06-30T11:31:01.088Z,99313.97
2023-06-30T11:32:03.092Z,99311.53
2023-06-30T11:33:06.315Z,99304.16
2023-06-30T11:34:08.657Z,99302.22
2023-06-30T11:35:13.591Z,99311.81
2023-06-30T11:36:17.019Z,99302.69
2023-06-30T11:37:18.886Z,99312.06
2023-06-30T11:38:21.258Z,99307.03
2023-06-30T11:39:23.424Z,99309.72
2023-06-30T11:40:25.547Z,99302.16
2023-06-30T11:41:34.508Z,99311.09
2023-06-30T11:42:43.025Z,99296.69
2023-06-30T11:43:51.544Z,99299.00
2023-06-30T11:44:54.012Z,99291.69
2023-06-30T11:46:01.645Z,99294.25
2023-06-30T11:47:05.612Z,99296.84
2023-06-30T11:48:07.667Z,99290.25
2023-06-30T11:49:10.402Z,99288.34
2023-06-30T11:50:12.988Z,99292.47
2023-06-30T11:51:14.976Z,99297.47
2023-06-30T11:52:19.937Z,99290.59
2023-06-30T11:53:21.931Z,99286.03
2023-06-30T11:54:34.012Z,99280.59
2023-06-30T11:55:36.176Z,99288.97
2023-06-30T11:56:41.300Z,99279.88
2023-06-30T11:57:47.648Z,99284.44
2023-06-30T11:58:51.637Z,99285.69
2023-06-30T11:59:53.526Z,99287.72
2023-06-30T12:00:57.546Z,99291.22
2023-06-30T12:02:01.326Z,99282.97
2023-06-30T12:03:03.481Z,99285.94
2023-06-30T12:04:11.221Z,99281.19
2023-06-30T12:05:15.512Z,99275.44
2023-06-30T12:06:24.870Z,99275.31
2023-06-30T12:07:27.101Z,99274.63
2023-06-30T12:08:31.878Z,99272.69
2023-06-30T12:09:34.663Z,99273.72
2023-06-30T12:10:40.858Z,99279.59
2023-06-30T12:11:46.839Z,99275.59
2023-06-30T12:12:57.806Z,99266.38
2023-06-30T12:14:07.844Z,99270.75
2023-06-30T12:15:12.671Z,99265.16
2023-06-30T12:16:14.641Z,99272.50
2023-06-30T12:17:19.282Z,99266.81
2023-06-30T12:18:38.848Z,99267.19
2023-06-30T12:19:45.636Z,99266.75
2023-06-30T12:20:47.474Z,99258.56
2023-06-30T12:22:00.983Z,99258.88
2023-06-30T12:23:05.117Z,99260.31
2023-06-30T12:24:08.827Z,99253.97
2023-06-30T12:25:16.058Z,99249.09
2023-06-30T12:26:17.929Z,99245.47